sensor_id;sensor_type;location;lat;lon;timestamp;P1;durP1;ratioP1;P2;durP2;ratioP2
53391;SDS011;41667;51.922;8.850;2023-05-19T00:00:12;8.35;;;2.70;;
53391;SDS011;41667;51.922;8.850;2023-05-19T00:02:39;9.15;;;2.75;;
53391;SDS011;41667;51.922;8.850;2023-05-19T00:05:04;4.60;;;2.65;;
53391;SDS011;41667;51.922;8.850;2023-05-19T00:07:30;2.72;;;2.33;;
53391;SDS011;41667;51.922;8.850;2023-05-19T00:09:56;4.05;;;2.55;;
53391;SDS011;41667;51.922;8.850;2023-05-19T00:12:21;3.15;;;2.40;;
53391;SDS011;41667;51.922;8.850;2023-05-19T00:14:47;2.72;;;2.53;;
53391;SDS011;41667;51.922;8.850;2023-05-19T00:17:12;4.45;;;2.45;;
53391;SDS011;41667;51.922;8.850;2023-05-19T00:19:38;3.92;;;2.30;;
53391;SDS011;41667;51.922;8.850;2023-05-19T00:22:04;4.57;;;2.72;;
53391;SDS011;41667;51.922;8.850;2023-05-19T00:24:29;3.33;;;3.03;;
53391;SDS011;41667;51.922;8.850;2023-05-19T00:26:54;5.73;;;2.67;;
53391;SDS011;41667;51.922;8.850;2023-05-19T00:29:20;2.88;;;2.47;;
53391;SDS011;41667;51.922;8.850;2023-05-19T00:31:45;3.00;;;2.17;;
53391;SDS011;41667;51.922;8.850;2023-05-19T00:34:10;3.30;;;2.78;;
53391;SDS011;41667;51.922;8.850;2023-05-19T00:36:35;4.20;;;2.03;;
53391;SDS011;41667;51.922;8.850;2023-05-19T00:39:00;10.85;;;3.33;;
53391;SDS011;41667;51.922;8.850;2023-05-19T00:41:25;2.60;;;2.28;;
53391;SDS011;41667;51.922;8.850;2023-05-19T00:43:51;4.50;;;2.80;;
53391;SDS011;41667;51.922;8.850;2023-05-19T00:46:17;5.53;;;2.70;;
53391;SDS011;41667;51.922;8.850;2023-05-19T00:48:42;5.88;;;2.50;;
53391;SDS011;41667;51.922;8.850;2023-05-19T00:51:09;3.72;;;2.40;;
53391;SDS011;41667;51.922;8.850;2023-05-19T00:53:38;4.18;;;2.80;;
53391;SDS011;41667;51.922;8.850;2023-05-19T00:56:03;2.47;;;2.27;;
53391;SDS011;41667;51.922;8.850;2023-05-19T00:58:29;3.05;;;2.42;;
53391;SDS011;41667;51.922;8.850;2023-05-19T01:00:56;3.40;;;3.10;;
53391;SDS011;41667;51.922;8.850;2023-05-19T01:03:26;3.05;;;2.67;;
53391;SDS011;41667;51.922;8.850;2023-05-19T01:05:54;3.85;;;2.47;;
53391;SDS011;41667;51.922;8.850;2023-05-19T01:08:19;3.10;;;2.30;;
53391;SDS011;41667;51.922;8.850;2023-05-19T01:10:45;4.53;;;2.63;;
53391;SDS011;41667;51.922;8.850;2023-05-19T01:13:10;3.58;;;2.33;;
53391;SDS011;41667;51.922;8.850;2023-05-19T01:15:39;4.50;;;2.35;;
53391;SDS011;41667;51.922;8.850;2023-05-19T01:18:10;3.55;;;2.22;;
53391;SDS011;41667;51.922;8.850;2023-05-19T01:20:38;3.53;;;2.10;;
53391;SDS011;41667;51.922;8.850;2023-05-19T01:23:11;3.72;;;2.72;;
53391;SDS011;41667;51.922;8.850;2023-05-19T01:25:53;2.97;;;2.47;;
53391;SDS011;41667;51.922;8.850;2023-05-19T01:30:46;8.15;;;2.78;;
53391;SDS011;41667;51.922;8.850;2023-05-19T01:33:13;6.63;;;2.40;;
53391;SDS011;41667;51.922;8.850;2023-05-19T01:35:38;6.40;;;2.45;;
53391;SDS011;41667;51.922;8.850;2023-05-19T01:38:06;5.07;;;2.50;;
53391;SDS011;41667;51.922;8.850;2023-05-19T01:40:31;5.97;;;2.50;;
53391;SDS011;41667;51.922;8.850;2023-05-19T01:42:58;7.55;;;2.67;;
53391;SDS011;41667;51.922;8.850;2023-05-19T01:45:23;4.20;;;2.22;;
53391;SDS011;41667;51.922;8.850;2023-05-19T01:47:50;2.67;;;2.47;;
53391;SDS011;41667;51.922;8.850;2023-05-19T01:50:17;4.88;;;3.08;;
53391;SDS011;41667;51.922;8.850;2023-05-19T01:52:43;7.57;;;2.55;;
53391;SDS011;41667;51.922;8.850;2023-05-19T01:55:08;2.75;;;2.28;;
53391;SDS011;41667;51.922;8.850;2023-05-19T02:02:35;4.13;;;2.08;;
53391;SDS011;41667;51.922;8.850;2023-05-19T02:05:08;4.95;;;2.72;;
53391;SDS011;41667;51.922;8.850;2023-05-19T02:07:40;5.25;;;2.67;;
53391;SDS011;41667;51.922;8.850;2023-05-19T02:10:13;3.87;;;2.47;;
53391;SDS011;41667;51.922;8.850;2023-05-19T02:12:43;3.58;;;2.10;;
53391;SDS011;41667;51.922;8.850;2023-05-19T02:15:16;6.43;;;2.72;;
53391;SDS011;41667;51.922;8.850;2023-05-19T02:17:44;8.02;;;2.70;;
53391;SDS011;41667;51.922;8.850;2023-05-19T02:20:15;2.75;;;2.47;;
53391;SDS011;41667;51.922;8.850;2023-05-19T02:22:41;2.60;;;2.15;;
53391;SDS011;41667;51.922;8.850;2023-05-19T02:25:06;2.50;;;2.17;;
53391;SDS011;41667;51.922;8.850;2023-05-19T02:27:35;8.60;;;2.80;;
53391;SDS011;41667;51.922;8.850;2023-05-19T02:30:01;3.00;;;2.53;;
53391;SDS011;41667;51.922;8.850;2023-05-19T02:32:26;5.35;;;2.50;;
53391;SDS011;41667;51.922;8.850;2023-05-19T02:34:51;3.57;;;2.43;;
53391;SDS011;41667;51.922;8.850;2023-05-19T02:37:17;3.05;;;2.40;;
53391;SDS011;41667;51.922;8.850;2023-05-19T02:39:42;2.77;;;2.37;;
53391;SDS011;41667;51.922;8.850;2023-05-19T02:42:08;3.28;;;2.53;;
53391;SDS011;41667;51.922;8.850;2023-05-19T02:44:33;4.72;;;2.58;;
53391;SDS011;41667;51.922;8.850;2023-05-19T02:46:58;2.30;;;1.98;;
53391;SDS011;41667;51.922;8.850;2023-05-19T02:49:23;3.85;;;2.20;;
53391;SDS011;41667;51.922;8.850;2023-05-19T02:51:49;9.33;;;3.10;;
53391;SDS011;41667;51.922;8.850;2023-05-19T02:54:14;4.88;;;1.98;;
53391;SDS011;41667;51.922;8.850;2023-05-19T02:56:39;4.77;;;2.67;;
53391;SDS011;41667;51.922;8.850;2023-05-19T02:59:04;3.08;;;2.20;;
53391;SDS011;41667;51.922;8.850;2023-05-19T03:01:30;3.20;;;2.42;;
53391;SDS011;41667;51.922;8.850;2023-05-19T03:03:56;4.65;;;2.47;;
53391;SDS011;41667;51.922;8.850;2023-05-19T03:06:21;7.50;;;2.60;;
53391;SDS011;41667;51.922;8.850;2023-05-19T03:08:47;3.38;;;2.35;;
53391;SDS011;41667;51.922;8.850;2023-05-19T03:11:12;6.13;;;3.63;;
53391;SDS011;41667;51.922;8.850;2023-05-19T03:13:37;8.95;;;2.70;;
53391;SDS011;41667;51.922;8.850;2023-05-19T03:16:02;2.75;;;2.25;;
53391;SDS011;41667;51.922;8.850;2023-05-19T03:18:28;5.93;;;2.13;;
53391;SDS011;41667;51.922;8.850;2023-05-19T03:20:53;3.15;;;2.38;;
53391;SDS011;41667;51.922;8.850;2023-05-19T03:23:18;6.10;;;2.70;;
53391;SDS011;41667;51.922;8.850;2023-05-19T03:25:44;3.40;;;2.33;;
53391;SDS011;41667;51.922;8.850;2023-05-19T03:28:09;2.55;;;2.35;;
53391;SDS011;41667;51.922;8.850;2023-05-19T03:30:34;4.63;;;2.57;;
53391;SDS011;41667;51.922;8.850;2023-05-19T03:32:59;4.40;;;2.15;;
53391;SDS011;41667;51.922;8.850;2023-05-19T03:35:25;5.60;;;2.60;;
53391;SDS011;41667;51.922;8.850;2023-05-19T03:37:50;6.57;;;2.25;;
53391;SDS011;41667;51.922;8.850;2023-05-19T03:40:15;3.83;;;2.10;;
53391;SDS011;41667;51.922;8.850;2023-05-19T03:42:42;3.08;;;2.40;;
53391;SDS011;41667;51.922;8.850;2023-05-19T03:45:07;3.50;;;2.22;;
53391;SDS011;41667;51.922;8.850;2023-05-19T03:47:33;5.60;;;2.90;;
53391;SDS011;41667;51.922;8.850;2023-05-19T03:49:58;5.40;;;1.92;;
53391;SDS011;41667;51.922;8.850;2023-05-19T03:52:23;4.68;;;2.40;;
53391;SDS011;41667;51.922;8.850;2023-05-19T03:54:48;2.88;;;2.47;;
53391;SDS011;41667;51.922;8.850;2023-05-19T03:57:13;3.63;;;2.63;;
53391;SDS011;41667;51.922;8.850;2023-05-19T03:59:38;2.72;;;2.50;;
53391;SDS011;41667;51.922;8.850;2023-05-19T04:02:05;3.53;;;2.38;;
53391;SDS011;41667;51.922;8.850;2023-05-19T04:04:30;9.80;;;2.55;;
53391;SDS011;41667;51.922;8.850;2023-05-19T04:06:55;3.83;;;2.53;;
53391;SDS011;41667;51.922;8.850;2023-05-19T04:09:21;6.05;;;2.13;;
53391;SDS011;41667;51.922;8.850;2023-05-19T04:11:47;5.82;;;2.58;;
53391;SDS011;41667;51.922;8.850;2023-05-19T04:14:13;2.60;;;2.40;;
53391;SDS011;41667;51.922;8.850;2023-05-19T04:16:38;2.35;;;2.15;;
53391;SDS011;41667;51.922;8.850;2023-05-19T04:19:03;2.95;;;2.30;;
53391;SDS011;41667;51.922;8.850;2023-05-19T04:21:28;3.25;;;2.15;;
53391;SDS011;41667;51.922;8.850;2023-05-19T04:23:54;4.03;;;2.47;;
53391;SDS011;41667;51.922;8.850;2023-05-19T04:26:19;2.90;;;2.63;;
53391;SDS011;41667;51.922;8.850;2023-05-19T04:28:46;6.22;;;2.28;;
53391;SDS011;41667;51.922;8.850;2023-05-19T04:31:12;5.10;;;2.22;;
53391;SDS011;41667;51.922;8.850;2023-05-19T04:33:38;6.82;;;2.70;;
53391;SDS011;41667;51.922;8.850;2023-05-19T04:36:04;3.38;;;2.60;;
53391;SDS011;41667;51.922;8.850;2023-05-19T04:38:32;4.90;;;2.67;;
53391;SDS011;41667;51.922;8.850;2023-05-19T04:40:57;2.72;;;1.98;;
53391;SDS011;41667;51.922;8.850;2023-05-19T04:43:25;3.65;;;2.70;;
53391;SDS011;41667;51.922;8.850;2023-05-19T04:45:51;4.85;;;2.83;;
53391;SDS011;41667;51.922;8.850;2023-05-19T04:48:16;5.68;;;3.05;;
53391;SDS011;41667;51.922;8.850;2023-05-19T04:50:41;5.07;;;2.72;;
53391;SDS011;41667;51.922;8.850;2023-05-19T04:53:07;3.10;;;2.03;;
53391;SDS011;41667;51.922;8.850;2023-05-19T04:55:32;2.95;;;2.05;;
53391;SDS011;41667;51.922;8.850;2023-05-19T04:57:58;5.40;;;2.33;;
53391;SDS011;41667;51.922;8.850;2023-05-19T05:00:23;5.10;;;2.60;;
53391;SDS011;41667;51.922;8.850;2023-05-19T05:02:49;3.30;;;2.53;;
53391;SDS011;41667;51.922;8.850;2023-05-19T05:05:14;5.45;;;2.80;;
53391;SDS011;41667;51.922;8.850;2023-05-19T05:07:39;3.73;;;2.63;;
53391;SDS011;41667;51.922;8.850;2023-05-19T05:10:05;5.67;;;3.10;;
53391;SDS011;41667;51.922;8.850;2023-05-19T05:12:30;5.40;;;2.85;;
53391;SDS011;41667;51.922;8.850;2023-05-19T05:14:56;3.15;;;2.67;;
53391;SDS011;41667;51.922;8.850;2023-05-19T05:17:21;5.90;;;3.15;;
53391;SDS011;41667;51.922;8.850;2023-05-19T05:19:46;2.92;;;2.63;;
53391;SDS011;41667;51.922;8.850;2023-05-19T05:22:13;8.32;;;3.17;;
53391;SDS011;41667;51.922;8.850;2023-05-19T05:24:42;12.18;;;2.95;;
53391;SDS011;41667;51.922;8.850;2023-05-19T05:27:07;3.70;;;2.95;;
53391;SDS011;41667;51.922;8.850;2023-05-19T05:29:33;6.13;;;2.35;;
53391;SDS011;41667;51.922;8.850;2023-05-19T05:31:59;5.68;;;2.80;;
53391;SDS011;41667;51.922;8.850;2023-05-19T05:34:24;5.50;;;2.97;;
53391;SDS011;41667;51.922;8.850;2023-05-19T05:36:49;6.35;;;2.72;;
53391;SDS011;41667;51.922;8.850;2023-05-19T05:39:15;6.68;;;2.85;;
53391;SDS011;41667;51.922;8.850;2023-05-19T05:41:40;4.88;;;2.65;;
53391;SDS011;41667;51.922;8.850;2023-05-19T05:44:05;6.78;;;2.92;;
53391;SDS011;41667;51.922;8.850;2023-05-19T05:46:30;9.68;;;3.10;;
53391;SDS011;41667;51.922;8.850;2023-05-19T05:48:55;4.20;;;2.53;;
53391;SDS011;41667;51.922;8.850;2023-05-19T05:51:21;4.40;;;3.30;;
53391;SDS011;41667;51.922;8.850;2023-05-19T05:53:47;6.65;;;3.05;;
53391;SDS011;41667;51.922;8.850;2023-05-19T05:56:15;6.88;;;2.90;;
53391;SDS011;41667;51.922;8.850;2023-05-19T05:58:40;5.68;;;3.00;;
53391;SDS011;41667;51.922;8.850;2023-05-19T06:01:05;8.18;;;2.85;;
53391;SDS011;41667;51.922;8.850;2023-05-19T06:03:34;6.95;;;2.72;;
53391;SDS011;41667;51.922;8.850;2023-05-19T06:06:01;7.97;;;2.53;;
53391;SDS011;41667;51.922;8.850;2023-05-19T06:08:27;8.27;;;2.50;;
53391;SDS011;41667;51.922;8.850;2023-05-19T06:10:52;2.60;;;2.40;;
53391;SDS011;41667;51.922;8.850;2023-05-19T06:13:17;5.57;;;2.70;;
53391;SDS011;41667;51.922;8.850;2023-05-19T06:15:46;6.13;;;2.53;;
53391;SDS011;41667;51.922;8.850;2023-05-19T06:18:11;3.78;;;2.65;;
53391;SDS011;41667;51.922;8.850;2023-05-19T06:20:36;6.00;;;2.27;;
53391;SDS011;41667;51.922;8.850;2023-05-19T06:23:01;5.80;;;2.75;;
53391;SDS011;41667;51.922;8.850;2023-05-19T06:25:26;7.30;;;3.00;;
53391;SDS011;41667;51.922;8.850;2023-05-19T06:27:52;3.63;;;2.20;;
53391;SDS011;41667;51.922;8.850;2023-05-19T06:30:17;5.57;;;2.80;;
53391;SDS011;41667;51.922;8.850;2023-05-19T06:32:42;3.20;;;2.30;;
53391;SDS011;41667;51.922;8.850;2023-05-19T06:35:07;7.13;;;2.17;;
53391;SDS011;41667;51.922;8.850;2023-05-19T06:37:32;6.63;;;3.03;;
53391;SDS011;41667;51.922;8.850;2023-05-19T06:39:57;6.93;;;2.55;;
53391;SDS011;41667;51.922;8.850;2023-05-19T06:42:23;3.00;;;2.08;;
53391;SDS011;41667;51.922;8.850;2023-05-19T06:44:49;6.10;;;2.35;;
53391;SDS011;41667;51.922;8.850;2023-05-19T06:47:15;4.30;;;2.40;;
53391;SDS011;41667;51.922;8.850;2023-05-19T06:49:40;2.92;;;2.33;;
53391;SDS011;41667;51.922;8.850;2023-05-19T06:52:05;6.95;;;2.33;;
53391;SDS011;41667;51.922;8.850;2023-05-19T06:54:30;6.13;;;2.53;;
53391;SDS011;41667;51.922;8.850;2023-05-19T06:56:55;5.25;;;2.72;;
53391;SDS011;41667;51.922;8.850;2023-05-19T06:59:21;2.30;;;2.10;;
53391;SDS011;41667;51.922;8.850;2023-05-19T07:01:47;5.75;;;2.47;;
53391;SDS011;41667;51.922;8.850;2023-05-19T07:04:12;3.90;;;2.55;;
53391;SDS011;41667;51.922;8.850;2023-05-19T07:06:37;3.60;;;2.15;;
53391;SDS011;41667;51.922;8.850;2023-05-19T07:09:02;7.75;;;2.25;;
53391;SDS011;41667;51.922;8.850;2023-05-19T07:11:29;2.97;;;2.22;;
53391;SDS011;41667;51.922;8.850;2023-05-19T07:13:54;6.30;;;2.35;;
53391;SDS011;41667;51.922;8.850;2023-05-19T07:16:19;4.78;;;2.20;;
53391;SDS011;41667;51.922;8.850;2023-05-19T07:18:44;2.38;;;1.70;;
53391;SDS011;41667;51.922;8.850;2023-05-19T07:21:10;4.50;;;2.13;;
53391;SDS011;41667;51.922;8.850;2023-05-19T07:23:35;3.28;;;2.25;;
53391;SDS011;41667;51.922;8.850;2023-05-19T07:26:00;4.20;;;2.40;;
53391;SDS011;41667;51.922;8.850;2023-05-19T07:28:25;5.75;;;2.22;;
53391;SDS011;41667;51.922;8.850;2023-05-19T07:30:50;5.43;;;2.40;;
53391;SDS011;41667;51.922;8.850;2023-05-19T07:33:15;3.27;;;1.93;;
53391;SDS011;41667;51.922;8.850;2023-05-19T07:35:41;4.55;;;2.20;;
53391;SDS011;41667;51.922;8.850;2023-05-19T07:38:06;4.75;;;2.08;;
53391;SDS011;41667;51.922;8.850;2023-05-19T07:40:31;4.88;;;2.20;;
53391;SDS011;41667;51.922;8.850;2023-05-19T07:42:56;4.88;;;1.90;;
53391;SDS011;41667;51.922;8.850;2023-05-19T07:45:21;11.35;;;3.47;;
53391;SDS011;41667;51.922;8.850;2023-05-19T07:47:47;7.25;;;2.25;;
53391;SDS011;41667;51.922;8.850;2023-05-19T07:50:12;4.63;;;2.22;;
53391;SDS011;41667;51.922;8.850;2023-05-19T07:52:37;4.80;;;1.90;;
53391;SDS011;41667;51.922;8.850;2023-05-19T07:55:02;4.50;;;1.88;;
53391;SDS011;41667;51.922;8.850;2023-05-19T07:57:27;3.20;;;1.60;;
53391;SDS011;41667;51.922;8.850;2023-05-19T07:59:52;3.58;;;1.67;;
53391;SDS011;41667;51.922;8.850;2023-05-19T08:02:17;4.25;;;1.83;;
53391;SDS011;41667;51.922;8.850;2023-05-19T08:04:43;4.20;;;1.70;;
53391;SDS011;41667;51.922;8.850;2023-05-19T08:07:08;4.03;;;2.03;;
53391;SDS011;41667;51.922;8.850;2023-05-19T08:09:33;2.58;;;1.75;;
53391;SDS011;41667;51.922;8.850;2023-05-19T08:11:58;3.88;;;1.70;;
53391;SDS011;41667;51.922;8.850;2023-05-19T08:14:25;6.03;;;1.60;;
53391;SDS011;41667;51.922;8.850;2023-05-19T08:16:51;4.22;;;1.60;;
53391;SDS011;41667;51.922;8.850;2023-05-19T08:19:16;2.75;;;1.08;;
53391;SDS011;41667;51.922;8.850;2023-05-19T08:21:41;2.97;;;1.67;;
53391;SDS011;41667;51.922;8.850;2023-05-19T08:24:07;9.25;;;2.03;;
53391;SDS011;41667;51.922;8.850;2023-05-19T08:26:32;5.72;;;1.67;;
53391;SDS011;41667;51.922;8.850;2023-05-19T08:28:57;2.07;;;1.50;;
53391;SDS011;41667;51.922;8.850;2023-05-19T08:31:22;2.57;;;1.30;;
53391;SDS011;41667;51.922;8.850;2023-05-19T08:33:48;1.92;;;1.23;;
53391;SDS011;41667;51.922;8.850;2023-05-19T08:36:13;6.70;;;2.10;;
53391;SDS011;41667;51.922;8.850;2023-05-19T08:38:39;6.80;;;1.30;;
53391;SDS011;41667;51.922;8.850;2023-05-19T08:41:04;4.78;;;1.83;;
53391;SDS011;41667;51.922;8.850;2023-05-19T08:43:29;6.57;;;1.48;;
53391;SDS011;41667;51.922;8.850;2023-05-19T08:45:55;4.13;;;1.40;;
53391;SDS011;41667;51.922;8.850;2023-05-19T08:48:20;1.57;;;1.30;;
53391;SDS011;41667;51.922;8.850;2023-05-19T08:50:51;3.90;;;1.10;;
53391;SDS011;41667;51.922;8.850;2023-05-19T08:53:18;1.35;;;0.85;;
53391;SDS011;41667;51.922;8.850;2023-05-19T08:55:50;1.45;;;1.20;;
53391;SDS011;41667;51.922;8.850;2023-05-19T08:58:17;2.58;;;1.20;;
53391;SDS011;41667;51.922;8.850;2023-05-19T09:00:44;3.17;;;1.17;;
53391;SDS011;41667;51.922;8.850;2023-05-19T09:03:09;1.02;;;0.85;;
53391;SDS011;41667;51.922;8.850;2023-05-19T09:05:37;2.17;;;1.10;;
53391;SDS011;41667;51.922;8.850;2023-05-19T09:08:02;4.82;;;1.20;;
53391;SDS011;41667;51.922;8.850;2023-05-19T09:10:28;3.53;;;1.25;;
53391;SDS011;41667;51.922;8.850;2023-05-19T09:12:54;1.30;;;1.20;;
53391;SDS011;41667;51.922;8.850;2023-05-19T09:15:19;1.00;;;0.82;;
53391;SDS011;41667;51.922;8.850;2023-05-19T09:17:47;5.23;;;1.10;;
53391;SDS011;41667;51.922;8.850;2023-05-19T09:20:13;4.28;;;1.00;;
53391;SDS011;41667;51.922;8.850;2023-05-19T09:22:44;3.63;;;1.10;;
53391;SDS011;41667;51.922;8.850;2023-05-19T09:25:44;2.00;;;1.00;;
53391;SDS011;41667;51.922;8.850;2023-05-19T09:28:02;2.50;;;1.17;;
53391;SDS011;41667;51.922;8.850;2023-05-19T09:30:27;3.30;;;1.30;;
53391;SDS011;41667;51.922;8.850;2023-05-19T09:32:52;5.73;;;1.57;;
53391;SDS011;41667;51.922;8.850;2023-05-19T09:35:17;2.63;;;1.00;;
53391;SDS011;41667;51.922;8.850;2023-05-19T09:37:44;2.65;;;1.00;;
53391;SDS011;41667;51.922;8.850;2023-05-19T09:40:12;2.05;;;1.02;;
53391;SDS011;41667;51.922;8.850;2023-05-19T09:42:37;1.55;;;1.00;;
53391;SDS011;41667;51.922;8.850;2023-05-19T09:45:03;5.03;;;0.88;;
53391;SDS011;41667;51.922;8.850;2023-05-19T09:47:35;1.92;;;1.02;;
53391;SDS011;41667;51.922;8.850;2023-05-19T09:50:04;2.83;;;1.63;;
53391;SDS011;41667;51.922;8.850;2023-05-19T09:52:33;1.50;;;1.05;;
53391;SDS011;41667;51.922;8.850;2023-05-19T09:54:59;2.40;;;1.20;;
53391;SDS011;41667;51.922;8.850;2023-05-19T09:57:26;1.55;;;0.90;;
53391;SDS011;41667;51.922;8.850;2023-05-19T09:59:52;8.60;;;1.60;;
53391;SDS011;41667;51.922;8.850;2023-05-19T10:02:18;3.38;;;1.08;;
53391;SDS011;41667;51.922;8.850;2023-05-19T10:04:45;2.28;;;1.08;;
53391;SDS011;41667;51.922;8.850;2023-05-19T10:07:12;2.58;;;1.50;;
53391;SDS011;41667;51.922;8.850;2023-05-19T10:09:38;2.10;;;1.33;;
53391;SDS011;41667;51.922;8.850;2023-05-19T10:12:05;5.63;;;1.77;;
53391;SDS011;41667;51.922;8.850;2023-05-19T10:14:31;3.47;;;1.63;;
53391;SDS011;41667;51.922;8.850;2023-05-19T10:16:57;1.02;;;0.93;;
53391;SDS011;41667;51.922;8.850;2023-05-19T10:19:23;3.13;;;2.05;;
53391;SDS011;41667;51.922;8.850;2023-05-19T10:21:49;2.97;;;1.10;;
53391;SDS011;41667;51.922;8.850;2023-05-19T10:24:14;1.23;;;1.13;;
53391;SDS011;41667;51.922;8.850;2023-05-19T10:26:41;2.28;;;1.45;;
53391;SDS011;41667;51.922;8.850;2023-05-19T10:29:07;5.07;;;1.33;;
53391;SDS011;41667;51.922;8.850;2023-05-19T10:31:33;1.23;;;1.00;;
53391;SDS011;41667;51.922;8.850;2023-05-19T10:34:00;3.53;;;1.30;;
53391;SDS011;41667;51.922;8.850;2023-05-19T10:39:03;1.52;;;1.33;;
53391;SDS011;41667;51.922;8.850;2023-05-19T10:41:39;2.90;;;1.50;;
53391;SDS011;41667;51.922;8.850;2023-05-19T10:46:43;3.75;;;1.02;;
53391;SDS011;41667;51.922;8.850;2023-05-19T10:49:08;1.60;;;1.25;;
53391;SDS011;41667;51.922;8.850;2023-05-19T10:51:33;1.83;;;1.00;;
53391;SDS011;41667;51.922;8.850;2023-05-19T10:54:02;3.97;;;1.40;;
53391;SDS011;41667;51.922;8.850;2023-05-19T10:56:28;2.35;;;1.40;;
53391;SDS011;41667;51.922;8.850;2023-05-19T10:58:54;2.13;;;1.23;;
53391;SDS011;41667;51.922;8.850;2023-05-19T11:01:19;0.93;;;0.93;;
53391;SDS011;41667;51.922;8.850;2023-05-19T11:03:53;3.42;;;1.40;;
53391;SDS011;41667;51.922;8.850;2023-05-19T11:06:25;2.95;;;1.33;;
53391;SDS011;41667;51.922;8.850;2023-05-19T11:08:55;3.63;;;1.15;;
53391;SDS011;41667;51.922;8.850;2023-05-19T11:11:21;1.30;;;0.93;;
53391;SDS011;41667;51.922;8.850;2023-05-19T11:13:47;1.02;;;1.00;;
53391;SDS011;41667;51.922;8.850;2023-05-19T11:16:13;1.38;;;1.20;;
53391;SDS011;41667;51.922;8.850;2023-05-19T11:18:38;2.65;;;1.77;;
53391;SDS011;41667;51.922;8.850;2023-05-19T11:21:03;2.47;;;1.40;;
53391;SDS011;41667;51.922;8.850;2023-05-19T11:23:31;3.35;;;1.27;;
53391;SDS011;41667;51.922;8.850;2023-05-19T11:25:57;2.53;;;1.00;;
53391;SDS011;41667;51.922;8.850;2023-05-19T11:28:25;3.15;;;1.30;;
53391;SDS011;41667;51.922;8.850;2023-05-19T11:30:53;2.70;;;1.25;;
53391;SDS011;41667;51.922;8.850;2023-05-19T11:33:19;2.70;;;1.42;;
53391;SDS011;41667;51.922;8.850;2023-05-19T11:35:44;3.65;;;1.10;;
53391;SDS011;41667;51.922;8.850;2023-05-19T11:38:10;1.55;;;1.00;;
53391;SDS011;41667;51.922;8.850;2023-05-19T11:40:35;2.25;;;1.15;;
53391;SDS011;41667;51.922;8.850;2023-05-19T11:43:01;1.45;;;1.35;;
53391;SDS011;41667;51.922;8.850;2023-05-19T11:45:27;3.33;;;1.40;;
53391;SDS011;41667;51.922;8.850;2023-05-19T11:47:53;2.75;;;1.35;;
53391;SDS011;41667;51.922;8.850;2023-05-19T11:50:19;3.90;;;1.30;;
53391;SDS011;41667;51.922;8.850;2023-05-19T11:52:44;1.55;;;1.45;;
53391;SDS011;41667;51.922;8.850;2023-05-19T11:55:14;1.25;;;0.90;;
53391;SDS011;41667;51.922;8.850;2023-05-19T11:57:40;3.50;;;1.40;;
53391;SDS011;41667;51.922;8.850;2023-05-19T12:00:05;4.07;;;1.30;;
53391;SDS011;41667;51.922;8.850;2023-05-19T12:02:31;2.92;;;1.27;;
53391;SDS011;41667;51.922;8.850;2023-05-19T12:04:57;1.63;;;1.27;;
53391;SDS011;41667;51.922;8.850;2023-05-19T12:07:22;2.67;;;1.65;;
53391;SDS011;41667;51.922;8.850;2023-05-19T12:09:48;2.33;;;1.38;;
53391;SDS011;41667;51.922;8.850;2023-05-19T12:12:20;0.85;;;0.80;;
53391;SDS011;41667;51.922;8.850;2023-05-19T12:14:47;1.73;;;1.17;;
53391;SDS011;41667;51.922;8.850;2023-05-19T12:17:14;1.80;;;1.20;;
53391;SDS011;41667;51.922;8.850;2023-05-19T12:19:41;1.65;;;1.10;;
53391;SDS011;41667;51.922;8.850;2023-05-19T12:22:07;2.75;;;1.55;;
53391;SDS011;41667;51.922;8.850;2023-05-19T12:24:33;2.45;;;1.00;;
53391;SDS011;41667;51.922;8.850;2023-05-19T12:27:11;1.75;;;1.33;;
53391;SDS011;41667;51.922;8.850;2023-05-19T12:29:37;3.05;;;1.33;;
53391;SDS011;41667;51.922;8.850;2023-05-19T12:32:03;2.88;;;1.05;;
53391;SDS011;41667;51.922;8.850;2023-05-19T12:34:29;2.75;;;1.15;;
53391;SDS011;41667;51.922;8.850;2023-05-19T12:36:54;1.77;;;1.20;;
53391;SDS011;41667;51.922;8.850;2023-05-19T12:39:19;1.48;;;1.10;;
53391;SDS011;41667;51.922;8.850;2023-05-19T12:41:44;2.80;;;1.10;;
53391;SDS011;41667;51.922;8.850;2023-05-19T12:44:13;4.03;;;0.90;;
53391;SDS011;41667;51.922;8.850;2023-05-19T12:46:39;3.88;;;1.15;;
53391;SDS011;41667;51.922;8.850;2023-05-19T12:49:04;1.05;;;1.00;;
53391;SDS011;41667;51.922;8.850;2023-05-19T12:51:29;2.13;;;1.10;;
53391;SDS011;41667;51.922;8.850;2023-05-19T12:53:57;1.00;;;0.90;;
53391;SDS011;41667;51.922;8.850;2023-05-19T12:56:23;4.47;;;1.30;;
53391;SDS011;41667;51.922;8.850;2023-05-19T12:58:52;1.80;;;1.15;;
53391;SDS011;41667;51.922;8.850;2023-05-19T13:01:18;1.52;;;1.00;;
53391;SDS011;41667;51.922;8.850;2023-05-19T13:03:43;1.38;;;1.00;;
53391;SDS011;41667;51.922;8.850;2023-05-19T13:06:09;5.18;;;1.30;;
53391;SDS011;41667;51.922;8.850;2023-05-19T13:08:35;1.17;;;1.00;;
53391;SDS011;41667;51.922;8.850;2023-05-19T13:11:00;3.20;;;1.25;;
53391;SDS011;41667;51.922;8.850;2023-05-19T13:13:26;2.50;;;1.33;;
53391;SDS011;41667;51.922;8.850;2023-05-19T13:15:51;1.30;;;0.90;;
53391;SDS011;41667;51.922;8.850;2023-05-19T13:18:16;1.90;;;0.95;;
53391;SDS011;41667;51.922;8.850;2023-05-19T13:20:42;1.13;;;1.02;;
53391;SDS011;41667;51.922;8.850;2023-05-19T13:23:08;2.53;;;1.13;;
53391;SDS011;41667;51.922;8.850;2023-05-19T13:25:34;1.40;;;0.80;;
53391;SDS011;41667;51.922;8.850;2023-05-19T13:27:59;2.90;;;1.20;;
53391;SDS011;41667;51.922;8.850;2023-05-19T13:30:27;2.05;;;1.17;;
53391;SDS011;41667;51.922;8.850;2023-05-19T13:32:52;1.60;;;1.40;;
53391;SDS011;41667;51.922;8.850;2023-05-19T13:35:18;3.20;;;1.10;;
53391;SDS011;41667;51.922;8.850;2023-05-19T13:37:43;1.42;;;1.20;;
53391;SDS011;41667;51.922;8.850;2023-05-19T13:40:08;1.17;;;0.80;;
53391;SDS011;41667;51.922;8.850;2023-05-19T13:42:34;4.93;;;1.50;;
53391;SDS011;41667;51.922;8.850;2023-05-19T13:44:59;0.90;;;0.82;;
53391;SDS011;41667;51.922;8.850;2023-05-19T13:47:24;2.67;;;0.85;;
53391;SDS011;41667;51.922;8.850;2023-05-19T13:49:50;1.42;;;1.27;;
53391;SDS011;41667;51.922;8.850;2023-05-19T13:52:15;1.60;;;1.38;;
53391;SDS011;41667;51.922;8.850;2023-05-19T13:54:41;1.23;;;1.13;;
53391;SDS011;41667;51.922;8.850;2023-05-19T13:57:06;1.40;;;1.03;;
53391;SDS011;41667;51.922;8.850;2023-05-19T13:59:31;3.97;;;1.30;;
53391;SDS011;41667;51.922;8.850;2023-05-19T14:01:56;1.95;;;1.00;;
53391;SDS011;41667;51.922;8.850;2023-05-19T14:04:22;1.77;;;0.80;;
53391;SDS011;41667;51.922;8.850;2023-05-19T14:06:50;1.00;;;1.00;;
53391;SDS011;41667;51.922;8.850;2023-05-19T14:09:15;2.50;;;1.00;;
53391;SDS011;41667;51.922;8.850;2023-05-19T14:11:40;3.08;;;0.80;;
53391;SDS011;41667;51.922;8.850;2023-05-19T14:14:06;2.42;;;1.10;;
53391;SDS011;41667;51.922;8.850;2023-05-19T14:16:31;3.67;;;0.90;;
53391;SDS011;41667;51.922;8.850;2023-05-19T14:18:56;1.67;;;0.80;;
53391;SDS011;41667;51.922;8.850;2023-05-19T14:21:21;2.67;;;0.80;;
53391;SDS011;41667;51.922;8.850;2023-05-19T14:23:47;2.08;;;0.93;;
53391;SDS011;41667;51.922;8.850;2023-05-19T14:26:12;1.30;;;0.98;;
53391;SDS011;41667;51.922;8.850;2023-05-19T14:28:37;1.00;;;0.90;;
53391;SDS011;41667;51.922;8.850;2023-05-19T14:31:02;1.13;;;0.93;;
53391;SDS011;41667;51.922;8.850;2023-05-19T14:33:27;2.10;;;1.30;;
53391;SDS011;41667;51.922;8.850;2023-05-19T14:35:53;1.10;;;1.00;;
53391;SDS011;41667;51.922;8.850;2023-05-19T14:38:19;0.82;;;0.82;;
53391;SDS011;41667;51.922;8.850;2023-05-19T14:40:44;4.90;;;1.23;;
53391;SDS011;41667;51.922;8.850;2023-05-19T14:43:10;2.65;;;0.98;;
53391;SDS011;41667;51.922;8.850;2023-05-19T14:45:36;1.23;;;0.73;;
53391;SDS011;41667;51.922;8.850;2023-05-19T14:48:01;1.70;;;0.88;;
53391;SDS011;41667;51.922;8.850;2023-05-19T14:50:27;2.27;;;1.03;;
53391;SDS011;41667;51.922;8.850;2023-05-19T14:52:52;0.80;;;0.80;;